Time;durP1;ratioP1;P1;durP2;ratioP2;P2;SDS_P1;SDS_P2;PMS_P1;PMS_P2;Temp;Humidity;BMP_temperature;BMP_pressure;BME280_temperature;BME280_humidity;BME280_pressure;Samples;Min_cycle;Max_cycle;Signal;HPM_P1;HPM_P2
2023/08/15 00:01:29;;;;;;;8.98;2.17;;;19.40;99.90;;;;;;4995276;28;37649;-77
2023/08/15 00:03:55;;;;;;;8.30;2.65;;;19.30;99.90;;;;;;4987488;28;36190;-76
2023/08/15 00:06:21;;;;;;;15.63;3.03;;;19.30;99.90;;;;;;5004578;28;38629;-76
2023/08/15 00:08:53;;;;;;;8.48;2.47;;;19.30;99.90;;;;;;4990617;28;38553;-76
2023/08/15 00:11:23;;;;;;;15.55;3.30;;;19.30;99.90;;;;;;4995694;28;37003;-76
2023/08/15 00:13:49;;;;;;;8.95;2.13;;;19.20;99.90;;;;;;4992030;28;37313;-76
2023/08/15 00:16:16;;;;;;;8.85;2.40;;;19.30;99.90;;;;;;4987575;28;39856;-76
2023/08/15 00:18:42;;;;;;;13.20;2.45;;;19.30;99.90;;;;;;4998689;28;38496;-76
2023/08/15 00:21:09;;;;;;;9.70;2.50;;;19.30;99.90;;;;;;4998448;28;38469;-76
2023/08/15 00:23:35;;;;;;;9.27;2.83;;;19.30;99.90;;;;;;4997842;28;36151;-76
2023/08/15 00:26:01;;;;;;;7.82;2.35;;;19.40;99.90;;;;;;4987303;28;38929;-76
2023/08/15 00:28:27;;;;;;;11.85;2.30;;;19.30;99.90;;;;;;4991246;28;49499;-76
2023/08/15 00:30:53;;;;;;;10.73;2.42;;;19.30;99.90;;;;;;4985553;28;37157;-76
2023/08/15 00:33:20;;;;;;;14.35;2.63;;;19.40;99.90;;;;;;4984704;28;37032;-76
2023/08/15 00:35:46;;;;;;;12.18;2.78;;;19.30;99.90;;;;;;4988749;28;37814;-76
2023/08/15 00:38:12;;;;;;;14.02;3.13;;;19.40;99.90;;;;;;4989432;28;37009;-77
2023/08/15 00:40:41;;;;;;;11.23;2.40;;;19.40;99.90;;;;;;4984001;28;37960;-76
2023/08/15 00:43:10;;;;;;;6.43;2.47;;;19.40;99.90;;;;;;4991922;28;37507;-76
2023/08/15 00:45:39;;;;;;;13.98;2.58;;;19.40;99.90;;;;;;4983097;28;37637;-76
2023/08/15 00:48:07;;;;;;;13.30;3.03;;;19.40;99.90;;;;;;4983011;28;37342;-76
2023/08/15 00:50:34;;;;;;;12.40;2.60;;;19.40;99.90;;;;;;4985009;28;37259;-76
2023/08/15 00:53:02;;;;;;;12.35;2.45;;;19.30;99.90;;;;;;4986448;28;36283;-76
2023/08/15 00:55:29;;;;;;;11.77;2.60;;;19.30;99.90;;;;;;4993030;28;48506;-76
2023/08/15 00:57:55;;;;;;;8.55;2.92;;;19.30;99.90;;;;;;4996621;28;39636;-75
2023/08/15 01:03:14;;;;;;;14.32;2.97;;;19.30;99.90;;;;;;5180169;23;20637;-85
2023/08/15 01:05:42;;;;;;;11.25;2.30;;;19.30;99.90;;;;;;4967264;28;38081;-84
2023/08/15 01:08:09;;;;;;;7.55;2.38;;;19.30;99.90;;;;;;4967179;28;37667;-85
2023/08/15 01:10:38;;;;;;;10.07;2.70;;;19.20;99.90;;;;;;4964560;28;39049;-85
2023/08/15 01:13:22;;;;;;;7.55;2.30;;;19.20;99.90;;;;;;4967804;28;37844;-84
2023/08/15 01:15:52;;;;;;;12.75;3.08;;;19.20;99.90;;;;;;4958739;28;38766;-85
2023/08/15 01:18:28;;;;;;;10.05;2.75;;;19.10;99.90;;;;;;4974365;28;38141;-84
2023/08/15 01:20:55;;;;;;;10.82;2.85;;;19.10;99.90;;;;;;4973545;28;38703;-85
2023/08/15 01:23:33;;;;;;;12.93;2.90;;;19.10;99.90;;;;;;4966859;28;38011;-85
2023/08/15 01:26:00;;;;;;;13.40;3.38;;;19.00;99.90;;;;;;4971074;28;37737;-86
2023/08/15 01:28:26;;;;;;;8.15;2.40;;;19.00;99.90;;;;;;4974665;28;37330;-85
2023/08/15 01:30:59;;;;;;;14.95;3.03;;;19.00;99.90;;;;;;4974336;28;37947;-85
2023/08/15 01:33:25;;;;;;;9.98;2.80;;;19.00;99.90;;;;;;4969066;28;36967;-85
2023/08/15 01:36:00;;;;;;;11.20;2.72;;;19.00;99.90;;;;;;4994893;28;38599;-85
2023/08/15 01:38:39;;;;;;;14.88;3.15;;;19.00;99.90;;;;;;4987590;28;48793;-84
2023/08/15 01:41:08;;;;;;;14.75;3.00;;;19.00;99.90;;;;;;4970982;28;38510;-85
2023/08/15 01:43:36;;;;;;;10.98;2.65;;;19.00;99.90;;;;;;4973609;28;36886;-85
2023/08/15 01:46:04;;;;;;;8.50;2.45;;;18.90;99.90;;;;;;4967682;28;38516;-83
2023/08/15 01:48:30;;;;;;;14.20;3.33;;;18.90;99.90;;;;;;4973545;28;37085;-85
2023/08/15 01:50:56;;;;;;;12.90;3.28;;;18.90;99.90;;;;;;4967947;28;36524;-86
2023/08/15 01:53:22;;;;;;;17.17;3.30;;;18.90;99.90;;;;;;4969037;28;36025;-85
2023/08/15 01:55:48;;;;;;;10.40;3.00;;;18.90;99.90;;;;;;4965302;28;39049;-85
2023/08/15 01:58:14;;;;;;;11.10;2.90;;;18.90;99.90;;;;;;4968581;28;37431;-86
2023/08/15 02:00:41;;;;;;;10.32;2.75;;;18.90;99.90;;;;;;4968517;28;38265;-86
2023/08/15 02:03:07;;;;;;;11.68;2.95;;;18.90;99.90;;;;;;4970938;28;36012;-84
2023/08/15 02:05:33;;;;;;;10.68;2.90;;;18.90;99.90;;;;;;4965873;28;38496;-86
2023/08/15 02:07:59;;;;;;;11.45;3.10;;;18.90;99.90;;;;;;4961713;28;38554;-85
2023/08/15 02:10:25;;;;;;;8.48;2.85;;;18.90;99.90;;;;;;4967686;28;36802;-85
2023/08/15 02:12:51;;;;;;;9.85;3.17;;;18.90;99.90;;;;;;4978587;28;37821;-85
2023/08/15 02:15:17;;;;;;;10.38;3.30;;;18.90;99.90;;;;;;4975939;28;37494;-85
2023/08/15 02:17:44;;;;;;;11.18;3.28;;;18.90;99.90;;;;;;4968489;28;39029;-83
2023/08/15 02:20:10;;;;;;;14.05;3.33;;;18.90;99.90;;;;;;4966893;28;38691;-85
2023/08/15 02:22:36;;;;;;;7.78;2.72;;;18.80;99.90;;;;;;4968046;28;36447;-85
2023/08/15 02:25:02;;;;;;;9.68;2.90;;;18.80;99.90;;;;;;4974307;28;38906;-85
2023/08/15 02:27:29;;;;;;;8.10;2.72;;;18.80;99.90;;;;;;4980667;28;37118;-85
2023/08/15 02:29:55;;;;;;;18.02;3.90;;;18.80;99.90;;;;;;4976184;28;39036;-85
2023/08/15 02:32:21;;;;;;;8.23;2.90;;;18.80;99.90;;;;;;4969321;28;37348;-84
2023/08/15 02:34:47;;;;;;;11.85;3.05;;;18.70;99.90;;;;;;4981187;28;40001;-86
2023/08/15 02:37:15;;;;;;;13.43;3.72;;;18.70;99.90;;;;;;4972865;28;39574;-85
2023/08/15 02:39:41;;;;;;;12.73;2.92;;;18.70;99.90;;;;;;4960689;28;36909;-86
2023/08/15 02:42:08;;;;;;;14.90;3.35;;;18.70;99.90;;;;;;4965295;28;37474;-85
2023/08/15 02:44:34;;;;;;;10.65;2.95;;;18.70;99.90;;;;;;4966008;28;38176;-85
2023/08/15 02:47:00;;;;;;;10.25;2.72;;;18.60;99.90;;;;;;4972220;28;37122;-85
2023/08/15 02:49:27;;;;;;;13.65;3.05;;;18.60;99.90;;;;;;4972798;28;39906;-86
2023/08/15 02:51:53;;;;;;;9.65;3.08;;;18.60;99.90;;;;;;4987234;28;37329;-86
2023/08/15 02:54:19;;;;;;;10.98;3.00;;;18.60;99.90;;;;;;4979536;28;39374;-86
2023/08/15 02:56:45;;;;;;;12.77;3.17;;;18.60;99.90;;;;;;4967164;28;38461;-86
2023/08/15 02:59:11;;;;;;;15.40;3.78;;;18.60;99.90;;;;;;4958816;28;37795;-85
2023/08/15 03:01:37;;;;;;;14.20;3.00;;;18.50;99.90;;;;;;4967884;28;36996;-86
2023/08/15 03:04:05;;;;;;;14.48;3.40;;;18.50;99.90;;;;;;4971641;28;39954;-85
2023/08/15 03:06:31;;;;;;;10.77;2.80;;;18.40;99.90;;;;;;4970406;28;37869;-85
2023/08/15 03:08:57;;;;;;;8.93;2.70;;;18.40;99.90;;;;;;4964574;28;37235;-86
2023/08/15 03:11:24;;;;;;;8.35;2.53;;;18.40;99.90;;;;;;4969764;28;37205;-85
2023/08/15 03:13:50;;;;;;;12.32;3.28;;;18.30;99.90;;;;;;4965386;28;37561;-85
2023/08/15 03:16:16;;;;;;;14.48;3.17;;;18.30;99.90;;;;;;4966304;28;37372;-86
2023/08/15 03:18:42;;;;;;;9.15;2.65;;;18.30;99.90;;;;;;4967991;28;37112;-86
2023/08/15 03:21:09;;;;;;;9.50;3.17;;;18.30;99.90;;;;;;4967944;28;36389;-85
2023/08/15 03:23:37;;;;;;;10.63;3.42;;;18.20;99.90;;;;;;4974225;28;37960;-85
2023/08/15 03:26:05;;;;;;;11.88;3.22;;;18.10;99.90;;;;;;4969715;28;37111;-85
2023/08/15 03:28:32;;;;;;;8.95;3.35;;;18.10;99.90;;;;;;4967621;28;38237;-86
2023/08/15 03:31:04;;;;;;;12.23;3.70;;;18.10;99.90;;;;;;4965218;28;36918;-86
2023/08/15 03:33:31;;;;;;;10.77;3.10;;;18.10;99.90;;;;;;4969595;28;47281;-86
2023/08/15 03:35:57;;;;;;;10.27;3.45;;;18.00;99.90;;;;;;4968387;28;38318;-86
2023/08/15 03:38:23;;;;;;;13.07;3.50;;;18.00;99.90;;;;;;4967323;28;37081;-86
2023/08/15 03:41:03;;;;;;;9.40;3.08;;;18.00;99.90;;;;;;4968927;28;36334;-86
2023/08/15 03:43:34;;;;;;;15.93;4.00;;;18.10;99.90;;;;;;4976637;28;48460;-86
2023/08/15 03:46:01;;;;;;;10.02;3.45;;;18.00;99.90;;;;;;4968487;28;38597;-85
2023/08/15 03:48:30;;;;;;;8.07;3.00;;;18.00;99.90;;;;;;4963591;28;47869;-86
2023/08/15 03:50:57;;;;;;;13.82;4.22;;;18.00;99.90;;;;;;4970238;28;35945;-87
2023/08/15 03:53:23;;;;;;;12.75;3.67;;;18.00;99.90;;;;;;4968966;28;39309;-86
2023/08/15 03:55:50;;;;;;;11.55;3.50;;;18.00;99.90;;;;;;4965233;28;37355;-86
2023/08/15 03:58:18;;;;;;;13.25;3.75;;;18.00;99.90;;;;;;4967110;28;38330;-84
2023/08/15 04:00:45;;;;;;;11.20;3.63;;;18.00;99.90;;;;;;4961200;28;36709;-85
2023/08/15 04:03:11;;;;;;;11.70;3.80;;;18.00;99.90;;;;;;4964200;28;38120;-85
2023/08/15 04:05:37;;;;;;;10.80;3.55;;;18.00;99.90;;;;;;4973912;28;37367;-85
2023/08/15 04:08:04;;;;;;;14.70;3.85;;;18.00;99.90;;;;;;4973737;28;37694;-85
2023/08/15 04:10:30;;;;;;;13.15;3.35;;;18.00;99.90;;;;;;4973484;28;36355;-85
2023/08/15 04:12:56;;;;;;;9.50;3.20;;;18.00;99.90;;;;;;4973222;28;37689;-85
2023/08/15 04:15:22;;;;;;;11.43;3.65;;;18.00;99.90;;;;;;4973855;28;38928;-85
2023/08/15 04:17:48;;;;;;;13.43;3.60;;;18.00;99.90;;;;;;4979768;28;40311;-86
2023/08/15 04:20:14;;;;;;;15.32;4.30;;;18.00;99.90;;;;;;4961809;28;37470;-83
2023/08/15 04:22:41;;;;;;;8.68;2.97;;;18.00;99.90;;;;;;4972570;28;37687;-86
2023/08/15 04:25:09;;;;;;;11.65;3.20;;;18.00;99.90;;;;;;4973449;28;38968;-85
2023/08/15 04:27:37;;;;;;;11.70;3.75;;;18.00;99.90;;;;;;4970184;28;37202;-85
2023/08/15 04:30:04;;;;;;;13.00;4.10;;;18.00;99.90;;;;;;4971190;28;36287;-85
2023/08/15 04:32:30;;;;;;;10.02;3.80;;;18.00;99.90;;;;;;4971701;28;38179;-85
2023/08/15 04:34:57;;;;;;;16.33;4.35;;;18.00;99.90;;;;;;4971243;28;39470;-86
2023/08/15 04:37:23;;;;;;;17.30;4.28;;;18.00;99.90;;;;;;4979069;28;37313;-86
2023/08/15 04:39:50;;;;;;;16.60;4.30;;;18.00;99.90;;;;;;4969436;28;37040;-86
2023/08/15 04:42:16;;;;;;;14.10;4.72;;;18.00;99.90;;;;;;4965288;28;38998;-86
2023/08/15 04:44:42;;;;;;;12.80;4.03;;;18.10;99.90;;;;;;4977550;28;38368;-85
2023/08/15 04:47:09;;;;;;;14.27;3.97;;;18.10;99.90;;;;;;4970479;28;38759;-85
2023/08/15 04:49:35;;;;;;;17.45;4.35;;;18.10;99.90;;;;;;4975599;28;37236;-85
2023/08/15 04:52:01;;;;;;;13.52;4.55;;;18.10;99.90;;;;;;4970898;28;38033;-85
2023/08/15 04:54:27;;;;;;;11.57;3.63;;;18.10;99.90;;;;;;4976243;28;38850;-84
2023/08/15 04:56:53;;;;;;;14.95;4.70;;;18.20;99.90;;;;;;4968265;28;37017;-85
2023/08/15 04:59:19;;;;;;;13.25;3.95;;;18.30;99.90;;;;;;4975006;28;37886;-85
2023/08/15 05:01:46;;;;;;;9.20;3.25;;;18.30;99.90;;;;;;4974040;28;38933;-84
2023/08/15 05:04:12;;;;;;;10.38;3.38;;;18.40;99.90;;;;;;4962610;28;39656;-84
2023/08/15 05:06:38;;;;;;;15.52;4.78;;;18.40;99.90;;;;;;4964073;28;39159;-83
2023/08/15 05:09:05;;;;;;;14.90;4.28;;;18.40;99.90;;;;;;4967692;28;36412;-85
2023/08/15 05:11:31;;;;;;;11.93;3.90;;;18.40;99.90;;;;;;4974919;28;39459;-84
2023/08/15 05:13:59;;;;;;;13.60;3.92;;;18.50;99.90;;;;;;4965706;28;38431;-85
2023/08/15 05:16:25;;;;;;;9.65;3.75;;;18.50;99.90;;;;;;4978974;28;38332;-84
2023/08/15 05:18:51;;;;;;;12.82;3.53;;;18.50;99.90;;;;;;4968741;28;38436;-85
2023/08/15 05:21:17;;;;;;;16.92;4.10;;;18.50;99.90;;;;;;4967003;28;39465;-82
2023/08/15 05:23:43;;;;;;;9.98;3.55;;;18.60;99.90;;;;;;4969246;28;39491;-85
2023/08/15 05:26:10;;;;;;;14.57;3.88;;;18.60;99.90;;;;;;4963638;28;38505;-83
2023/08/15 05:28:36;;;;;;;8.80;3.40;;;18.70;99.90;;;;;;4970218;28;36987;-83
2023/08/15 05:31:02;;;;;;;10.18;3.40;;;18.70;99.90;;;;;;4962903;28;38022;-84
2023/08/15 05:33:28;;;;;;;8.88;3.08;;;18.70;99.90;;;;;;4974219;28;38416;-85
2023/08/15 05:35:54;;;;;;;10.52;4.05;;;18.70;99.90;;;;;;4968614;28;36893;-87
2023/08/15 05:38:20;;;;;;;15.90;3.75;;;18.80;99.90;;;;;;4978581;28;36962;-86
2023/08/15 05:40:47;;;;;;;12.38;3.55;;;18.80;99.90;;;;;;4967839;28;38079;-84
2023/08/15 05:43:13;;;;;;;11.35;3.40;;;18.80;99.90;;;;;;4961937;28;37118;-81
2023/08/15 05:45:39;;;;;;;9.52;3.50;;;18.90;99.90;;;;;;4972920;28;39247;-82
2023/08/15 05:48:06;;;;;;;10.52;3.53;;;18.90;99.90;;;;;;4969503;28;36125;-82
2023/08/15 05:50:32;;;;;;;11.45;3.95;;;18.90;99.90;;;;;;4982675;28;39906;-78
2023/08/15 05:52:58;;;;;;;12.52;3.90;;;19.00;99.90;;;;;;4973185;28;37556;-80
2023/08/15 05:55:24;;;;;;;14.45;4.15;;;19.00;99.90;;;;;;4962349;28;36800;-84
2023/08/15 05:57:50;;;;;;;15.25;4.07;;;19.00;99.90;;;;;;4967849;28;38261;-83
2023/08/15 06:00:18;;;;;;;15.30;3.83;;;19.10;99.90;;;;;;4977773;28;37844;-84
2023/08/15 06:02:44;;;;;;;10.15;3.13;;;19.20;99.90;;;;;;4966121;28;38246;-83
2023/08/15 06:05:11;;;;;;;9.52;4.13;;;19.20;99.90;;;;;;4972137;28;37567;-84
2023/08/15 06:07:37;;;;;;;12.57;3.80;;;19.40;99.90;;;;;;4978701;28;37329;-84
2023/08/15 06:10:03;;;;;;;12.23;3.67;;;19.40;99.90;;;;;;4964529;28;39814;-84
2023/08/15 06:12:30;;;;;;;17.02;4.18;;;19.40;99.90;;;;;;4986316;28;38285;-84
2023/08/15 06:14:56;;;;;;;12.23;3.60;;;19.30;99.90;;;;;;4969773;28;38152;-84
2023/08/15 06:17:22;;;;;;;10.65;3.67;;;19.20;99.90;;;;;;4976895;28;35896;-83
2023/08/15 06:19:48;;;;;;;14.55;3.53;;;19.20;99.90;;;;;;4968600;28;39644;-83
2023/08/15 06:22:15;;;;;;;10.73;3.42;;;19.20;99.90;;;;;;4959108;28;37544;-84
2023/08/15 06:24:41;;;;;;;11.80;3.85;;;19.20;99.90;;;;;;4966686;28;36902;-84
2023/08/15 06:27:07;;;;;;;9.48;3.72;;;19.30;99.90;;;;;;4984524;28;36910;-83
2023/08/15 06:29:33;;;;;;;12.88;3.75;;;19.30;99.90;;;;;;4971456;28;37535;-83
2023/08/15 06:31:59;;;;;;;13.60;3.33;;;19.40;99.90;;;;;;4961630;28;38302;-83
2023/08/15 06:34:26;;;;;;;12.45;3.58;;;19.40;99.90;;;;;;4965051;28;38336;-82
2023/08/15 06:36:53;;;;;;;18.10;4.22;;;19.40;99.90;;;;;;4971512;28;38894;-85
2023/08/15 06:39:20;;;;;;;8.13;3.08;;;19.40;99.90;;;;;;4969793;28;39591;-85
2023/08/15 06:41:46;;;;;;;11.13;3.50;;;19.50;99.90;;;;;;4982162;28;37626;-85
2023/08/15 06:44:15;;;;;;;8.38;2.90;;;19.60;99.90;;;;;;4975586;28;37694;-85
2023/08/15 06:46:41;;;;;;;9.38;3.78;;;19.60;99.90;;;;;;4974304;28;40009;-85
2023/08/15 06:49:11;;;;;;;11.50;4.20;;;19.80;99.90;;;;;;4966848;28;39699;-86
2023/08/15 06:51:37;;;;;;;11.93;3.60;;;19.90;99.90;;;;;;4965264;28;38602;-83
2023/08/15 06:54:03;;;;;;;11.77;4.00;;;20.00;99.90;;;;;;4968053;28;37193;-79
2023/08/15 06:56:29;;;;;;;10.13;3.95;;;20.00;99.90;;;;;;4967939;28;37957;-80
2023/08/15 06:58:56;;;;;;;7.55;3.58;;;19.80;99.90;;;;;;4973947;28;37820;-80
2023/08/15 07:01:22;;;;;;;10.45;3.88;;;19.90;99.90;;;;;;4973161;28;38462;-79
2023/08/15 07:03:51;;;;;;;12.38;4.18;;;20.00;99.90;;;;;;4975465;28;37054;-80
2023/08/15 07:06:17;;;;;;;11.57;3.80;;;20.10;99.90;;;;;;4960256;28;36525;-81
2023/08/15 07:08:43;;;;;;;8.30;2.90;;;20.20;99.90;;;;;;4967320;28;38852;-79
2023/08/15 07:11:09;;;;;;;9.57;3.25;;;20.30;99.90;;;;;;4970768;28;38219;-79
2023/08/15 07:13:35;;;;;;;9.80;3.28;;;20.40;99.90;;;;;;4961514;28;37236;-79
2023/08/15 07:16:01;;;;;;;8.00;3.45;;;20.50;99.90;;;;;;4965866;28;37072;-79
2023/08/15 07:18:27;;;;;;;9.10;3.08;;;20.70;99.90;;;;;;4960284;28;47208;-80
2023/08/15 07:20:53;;;;;;;8.70;3.78;;;20.70;99.90;;;;;;4959607;28;36061;-78
2023/08/15 07:23:22;;;;;;;12.63;3.67;;;20.80;99.90;;;;;;4959903;28;37197;-79
2023/08/15 07:25:48;;;;;;;9.85;3.33;;;20.80;99.90;;;;;;4959253;28;37655;-78
2023/08/15 07:28:15;;;;;;;8.13;3.25;;;20.90;99.90;;;;;;4959405;28;40131;-79
2023/08/15 07:30:45;;;;;;;9.70;3.40;;;20.90;99.90;;;;;;4962021;28;40177;-79
2023/08/15 07:33:12;;;;;;;12.18;3.20;;;21.00;99.90;;;;;;4959988;28;36989;-78
2023/08/15 07:35:38;;;;;;;13.77;3.85;;;21.00;99.90;;;;;;4975333;28;36059;-79
2023/08/15 07:38:04;;;;;;;8.25;3.80;;;21.00;99.90;;;;;;4955685;28;37937;-79
2023/08/15 07:40:31;;;;;;;11.55;3.75;;;20.80;99.90;;;;;;4962467;28;37326;-78
2023/08/15 07:42:57;;;;;;;9.40;3.58;;;20.80;99.90;;;;;;4963536;28;38206;-79
2023/08/15 07:45:23;;;;;;;10.18;3.53;;;20.70;99.90;;;;;;4965403;28;36242;-79
2023/08/15 07:47:52;;;;;;;10.43;4.05;;;20.70;99.90;;;;;;4957530;28;39036;-80
2023/08/15 07:50:24;;;;;;;10.85;4.10;;;20.70;99.90;;;;;;4961054;28;37965;-81
2023/08/15 07:52:50;;;;;;;14.20;3.95;;;20.70;99.90;;;;;;4967395;28;37585;-76
2023/08/15 07:55:17;;;;;;;10.50;3.70;;;20.80;99.90;;;;;;4957200;28;37284;-74
2023/08/15 07:57:43;;;;;;;11.40;4.03;;;20.80;99.90;;;;;;4962746;28;40208;-76
2023/08/15 08:00:11;;;;;;;9.77;4.30;;;20.70;99.90;;;;;;4959872;28;39156;-75
2023/08/15 08:02:37;;;;;;;10.20;4.45;;;20.70;99.90;;;;;;4953084;28;37139;-78
2023/08/15 08:05:06;;;;;;;9.23;4.00;;;20.70;99.90;;;;;;4967400;28;36374;-74
2023/08/15 08:07:33;;;;;;;8.13;3.60;;;20.70;99.90;;;;;;4959010;28;47193;-75
2023/08/15 08:10:04;;;;;;;8.25;3.63;;;20.70;99.90;;;;;;4957579;28;20055;-75
2023/08/15 08:12:30;;;;;;;7.75;3.33;;;20.60;99.90;;;;;;4976614;28;36613;-77
2023/08/15 08:14:57;;;;;;;11.00;3.55;;;20.60;99.90;;;;;;4959676;28;36546;-76
2023/08/15 08:17:23;;;;;;;13.70;3.42;;;20.60;99.90;;;;;;4950293;28;37751;-76
2023/08/15 08:19:50;;;;;;;12.68;3.65;;;20.60;99.90;;;;;;4960629;28;38191;-76
2023/08/15 08:22:16;;;;;;;9.73;3.38;;;20.70;99.90;;;;;;4954949;28;38056;-76
2023/08/15 08:24:42;;;;;;;10.32;2.70;;;20.70;99.90;;;;;;4956611;28;36967;-77
2023/08/15 08:27:08;;;;;;;10.77;2.92;;;20.70;99.90;;;;;;4965283;28;39668;-78
2023/08/15 08:29:35;;;;;;;19.15;3.72;;;20.70;99.90;;;;;;4969281;28;37278;-82
2023/08/15 08:32:01;;;;;;;10.35;3.20;;;20.70;99.90;;;;;;4962010;28;38063;-81
2023/08/15 08:34:27;;;;;;;11.55;3.67;;;20.70;99.90;;;;;;4951456;28;47638;-81
2023/08/15 08:36:54;;;;;;;10.70;3.53;;;20.70;99.90;;;;;;4970691;28;37804;-81
2023/08/15 08:39:21;;;;;;;13.55;4.28;;;20.70;99.90;;;;;;4967072;28;37337;-83
2023/08/15 08:41:47;;;;;;;11.68;3.67;;;20.60;99.90;;;;;;4968480;28;39050;-84
2023/08/15 08:44:14;;;;;;;12.60;4.20;;;20.60;99.90;;;;;;4964533;28;36297;-83
2023/08/15 08:46:41;;;;;;;9.23;4.22;;;20.70;99.90;;;;;;4966294;28;37624;-79
2023/08/15 08:49:11;;;;;;;10.65;3.78;;;20.70;99.90;;;;;;4960863;28;38722;-79
2023/08/15 08:51:38;;;;;;;12.85;2.97;;;20.60;99.90;;;;;;4959454;28;38214;-78
2023/08/15 08:54:04;;;;;;;10.18;2.33;;;20.70;99.90;;;;;;4963750;28;36165;-78
2023/08/15 08:56:32;;;;;;;8.48;2.45;;;20.80;99.90;;;;;;4964793;28;37939;-78
2023/08/15 08:59:12;;;;;;;7.32;1.95;;;20.90;99.90;;;;;;4962656;28;38571;-77
2023/08/15 09:01:39;;;;;;;8.77;2.78;;;21.10;99.90;;;;;;4959581;28;48155;-78
2023/08/15 09:04:05;;;;;;;10.05;2.97;;;21.30;99.90;;;;;;4967340;28;35990;-77
2023/08/15 09:06:32;;;;;;;7.43;2.65;;;21.50;99.90;;;;;;4961180;28;38844;-76
2023/08/15 09:08:59;;;;;;;6.45;2.05;;;21.60;99.90;;;;;;4970881;28;37672;-76
2023/08/15 09:11:36;;;;;;;9.90;2.40;;;21.60;99.90;;;;;;4961429;28;37158;-76
2023/08/15 09:14:04;;;;;;;5.63;1.67;;;21.70;99.90;;;;;;4961400;28;36033;-74
2023/08/15 09:16:31;;;;;;;5.00;1.60;;;21.50;99.90;;;;;;4957248;28;37497;-74
2023/08/15 09:19:00;;;;;;;3.95;1.52;;;21.40;99.90;;;;;;4961146;28;38518;-76
2023/08/15 09:21:27;;;;;;;3.15;1.27;;;21.50;99.90;;;;;;4962850;28;47220;-86
2023/08/15 09:23:56;;;;;;;4.10;1.30;;;21.70;99.90;;;;;;4961920;28;37115;-84
2023/08/15 09:26:23;;;;;;;2.20;0.88;;;21.70;99.90;;;;;;4980050;28;38134;-83
2023/08/15 09:28:50;;;;;;;5.82;0.88;;;21.60;99.90;;;;;;4957163;28;37709;-82
2023/08/15 09:31:18;;;;;;;1.83;0.70;;;21.60;99.90;;;;;;4956489;28;38224;-82
2023/08/15 09:33:45;;;;;;;3.35;0.70;;;21.80;99.90;;;;;;4962988;28;36486;-82
2023/08/15 09:36:11;;;;;;;2.35;0.60;;;22.20;99.90;;;;;;4970965;28;39372;-82
2023/08/15 09:38:38;;;;;;;5.05;1.08;;;22.20;99.90;;;;;;4972490;28;37483;-82
2023/08/15 09:41:05;;;;;;;2.25;0.70;;;22.30;99.90;;;;;;4969864;28;36998;-82
2023/08/15 09:43:32;;;;;;;2.05;0.70;;;22.00;99.90;;;;;;4967778;28;37276;-82
2023/08/15 09:46:02;;;;;;;1.30;0.65;;;21.80;99.90;;;;;;4960064;28;38973;-82
2023/08/15 09:48:28;;;;;;;3.53;0.60;;;21.50;99.90;;;;;;4969802;28;48685;-82
2023/08/15 09:50:56;;;;;;;1.10;0.20;;;21.50;99.90;;;;;;4962244;28;38572;-82
2023/08/15 09:53:23;;;;;;;0.80;0.30;;;21.40;99.90;;;;;;4968746;28;36991;-82
2023/08/15 09:55:51;;;;;;;0.98;0.38;;;21.30;99.90;;;;;;4969635;28;37801;-82
2023/08/15 09:58:17;;;;;;;0.43;0.20;;;21.20;99.90;;;;;;4963754;28;37789;-82
2023/08/15 10:00:46;;;;;;;1.10;0.30;;;21.10;99.90;;;;;;4969989;28;38613;-83
2023/08/15 10:03:35;;;;;;;0.25;0.20;;;21.10;99.90;;;;;;4968395;28;36887;-78
2023/08/15 10:06:03;;;;;;;2.53;0.32;;;21.30;99.90;;;;;;4961782;28;39028;-79
2023/08/15 10:08:30;;;;;;;0.75;0.20;;;21.30;99.90;;;;;;4974105;28;37289;-76
2023/08/15 10:10:58;;;;;;;2.28;0.43;;;21.20;99.90;;;;;;4961212;28;36920;-85
2023/08/15 10:13:36;;;;;;;0.98;0.40;;;21.00;99.90;;;;;;4971953;28;36363;-79
2023/08/15 10:16:05;;;;;;;1.25;0.38;;;21.10;99.90;;;;;;4967145;28;37835;-78
2023/08/15 10:18:31;;;;;;;1.30;0.50;;;21.20;99.90;;;;;;4962710;28;39180;-79
2023/08/15 10:20:58;;;;;;;0.77;0.47;;;21.20;99.90;;;;;;4965410;28;38584;-76
2023/08/15 10:23:28;;;;;;;1.02;0.35;;;21.20;99.90;;;;;;4967883;28;35935;-79
2023/08/15 10:25:55;;;;;;;0.80;0.20;;;21.40;99.90;;;;;;4971525;28;38027;-78
2023/08/15 10:28:21;;;;;;;0.70;0.32;;;21.50;99.90;;;;;;4964726;28;38367;-78
2023/08/15 10:30:48;;;;;;;1.00;0.40;;;21.80;99.90;;;;;;4978690;28;38211;-78
2023/08/15 10:33:14;;;;;;;1.20;0.52;;;21.80;99.90;;;;;;4968405;28;37100;-77
2023/08/15 10:36:05;;;;;;;0.90;0.43;;;21.80;99.90;;;;;;4969382;28;39331;-78
2023/08/15 10:38:43;;;;;;;1.48;0.60;;;22.00;99.90;;;;;;4966469;28;47052;-78
2023/08/15 10:41:17;;;;;;;2.75;0.50;;;22.00;99.90;;;;;;4965730;28;38524;-77
2023/08/15 10:43:55;;;;;;;0.90;0.30;;;22.10;99.90;;;;;;4967041;28;36935;-77
2023/08/15 10:46:29;;;;;;;1.90;0.70;;;22.10;99.90;;;;;;4956910;28;37857;-77
2023/08/15 10:49:01;;;;;;;0.52;0.40;;;22.20;99.90;;;;;;4965191;28;38346;-77
2023/08/15 10:51:34;;;;;;;1.08;0.63;;;22.20;99.90;;;;;;4961329;28;49882;-77
2023/08/15 10:54:04;;;;;;;0.90;0.50;;;22.10;99.90;;;;;;4968662;28;37707;-78
2023/08/15 10:56:32;;;;;;;0.52;0.40;;;22.00;99.90;;;;;;4967126;28;49197;-78
2023/08/15 10:59:04;;;;;;;0.75;0.38;;;22.00;99.90;;;;;;4981579;28;38700;-78
2023/08/15 11:01:30;;;;;;;1.27;0.50;;;22.30;99.90;;;;;;4969069;28;48325;-78
2023/08/15 11:03:57;;;;;;;1.55;0.43;;;22.40;99.90;;;;;;4968074;28;37221;-78
2023/08/15 11:06:24;;;;;;;1.20;0.40;;;22.60;99.90;;;;;;4969634;28;38728;-77
2023/08/15 11:08:55;;;;;;;2.05;0.55;;;22.90;99.90;;;;;;4971490;28;38835;-77
2023/08/15 11:11:22;;;;;;;1.02;0.40;;;22.90;99.90;;;;;;4965421;28;38020;-79
2023/08/15 11:13:50;;;;;;;2.08;0.60;;;23.00;99.90;;;;;;4960745;28;37491;-77
2023/08/15 11:16:18;;;;;;;2.60;0.90;;;23.10;99.90;;;;;;4964683;28;40553;-78
2023/08/15 11:18:45;;;;;;;2.38;0.70;;;23.20;99.90;;;;;;4976287;28;38209;-78
2023/08/15 11:21:13;;;;;;;2.72;0.95;;;23.30;99.90;;;;;;4972317;28;37573;-78
2023/08/15 11:23:40;;;;;;;0.50;0.50;;;23.20;99.90;;;;;;4959992;28;36553;-78
2023/08/15 11:26:08;;;;;;;1.55;0.55;;;23.10;99.90;;;;;;4967448;28;37652;-77
2023/08/15 11:28:35;;;;;;;0.60;0.35;;;23.00;99.90;;;;;;4967429;28;37540;-78
2023/08/15 11:31:04;;;;;;;0.95;0.60;;;23.00;99.90;;;;;;4967481;28;37279;-78
2023/08/15 11:33:31;;;;;;;1.73;0.80;;;22.90;99.90;;;;;;4962153;28;37446;-79
2023/08/15 11:36:06;;;;;;;2.22;0.70;;;22.80;99.90;;;;;;4970756;28;38460;-78
2023/08/15 11:38:33;;;;;;;5.95;0.95;;;22.60;99.90;;;;;;4974074;28;46972;-78
2023/08/15 11:41:01;;;;;;;1.42;0.70;;;22.70;99.90;;;;;;4968620;28;39049;-78
2023/08/15 11:43:28;;;;;;;2.13;0.77;;;23.00;99.90;;;;;;4971469;28;48792;-77
2023/08/15 11:45:55;;;;;;;2.38;0.70;;;23.20;99.90;;;;;;4960797;28;38669;-77
2023/08/15 11:48:21;;;;;;;3.58;0.98;;;23.30;99.90;;;;;;4970808;28;38723;-78
2023/08/15 11:50:47;;;;;;;2.08;1.00;;;23.50;99.90;;;;;;4965735;28;39150;-78
2023/08/15 11:53:15;;;;;;;2.88;0.80;;;23.90;99.90;;;;;;4970417;28;36145;-77
2023/08/15 11:55:42;;;;;;;2.95;0.90;;;24.10;95.00;;;;;;4987181;28;37798;-78
2023/08/15 11:58:31;;;;;;;3.17;0.88;;;24.00;95.00;;;;;;4964952;28;39638;-78
2023/08/15 12:01:03;;;;;;;2.38;0.90;;;23.90;97.10;;;;;;4976649;28;39510;-77
2023/08/15 12:03:30;;;;;;;2.13;0.63;;;24.00;89.60;;;;;;4962838;28;47380;-77
2023/08/15 12:05:58;;;;;;;1.67;0.80;;;24.10;81.00;;;;;;4967488;28;37804;-78
2023/08/15 12:08:28;;;;;;;3.45;0.90;;;24.50;92.00;;;;;;4966147;28;39160;-78
2023/08/15 12:10:57;;;;;;;3.40;0.75;;;24.80;82.60;;;;;;4980825;28;37368;-77
2023/08/15 12:13:41;;;;;;;2.60;0.73;;;24.80;85.20;;;;;;4959986;28;37990;-77
2023/08/15 12:16:09;;;;;;;3.83;0.90;;;24.70;70.60;;;;;;4969038;28;36734;-78
2023/08/15 12:18:36;;;;;;;4.93;1.00;;;24.70;55.70;;;;;;4961869;28;37245;-78
2023/08/15 12:21:07;;;;;;;2.35;0.88;;;24.90;79.30;;;;;;4966056;28;36607;-76
2023/08/15 12:23:33;;;;;;;2.70;0.98;;;25.10;70.00;;;;;;4969103;28;37372;-75
2023/08/15 12:25:59;;;;;;;2.47;1.08;;;25.20;68.30;;;;;;4961826;28;38545;-75
2023/08/15 12:28:25;;;;;;;2.10;0.77;;;25.20;49.80;;;;;;4976576;28;37594;-75
2023/08/15 12:30:51;;;;;;;1.55;0.70;;;25.30;50.60;;;;;;4958432;28;38357;-78
2023/08/15 12:33:17;;;;;;;2.95;0.82;;;25.50;72.20;;;;;;4971285;28;37494;-78
2023/08/15 12:35:44;;;;;;;3.00;0.75;;;25.50;27.70;;;;;;4979520;28;39102;-79
2023/08/15 12:38:10;;;;;;;3.78;1.15;;;25.50;53.90;;;;;;4960867;28;38560;-80
2023/08/15 12:40:36;;;;;;;4.90;1.10;;;25.50;42.70;;;;;;4971052;28;36890;-80
2023/08/15 12:43:02;;;;;;;1.48;0.70;;;25.50;39.20;;;;;;4978679;28;36251;-81
2023/08/15 12:45:28;;;;;;;2.03;0.70;;;25.60;60.30;;;;;;4966019;28;37673;-78